sensor_id;sensor_type;location;lat;lon;timestamp;P1;durP1;ratioP1;P2;durP2;ratioP2
76475;SDS011;65308;50.078;14.854;2023-04-25T00:02:27;4.38;;;2.50;;
76475;SDS011;65308;50.078;14.854;2023-04-25T00:04:57;4.63;;;2.47;;
76475;SDS011;65308;50.078;14.854;2023-04-25T00:07:26;5.05;;;2.50;;
76475;SDS011;65308;50.078;14.854;2023-04-25T00:09:52;3.92;;;2.25;;
76475;SDS011;65308;50.078;14.854;2023-04-25T00:12:19;4.82;;;2.65;;
76475;SDS011;65308;50.078;14.854;2023-04-25T00:14:48;4.50;;;2.70;;
76475;SDS011;65308;50.078;14.854;2023-04-25T00:17:14;4.75;;;2.80;;
76475;SDS011;65308;50.078;14.854;2023-04-25T00:19:41;4.50;;;2.50;;
76475;SDS011;65308;50.078;14.854;2023-04-25T00:22:09;4.15;;;2.67;;
76475;SDS011;65308;50.078;14.854;2023-04-25T00:24:38;5.47;;;2.90;;
76475;SDS011;65308;50.078;14.854;2023-04-25T00:27:05;4.85;;;2.70;;
76475;SDS011;65308;50.078;14.854;2023-04-25T00:29:31;4.07;;;2.50;;
76475;SDS011;65308;50.078;14.854;2023-04-25T00:32:02;4.28;;;2.90;;
76475;SDS011;65308;50.078;14.854;2023-04-25T00:34:29;4.55;;;2.90;;
76475;SDS011;65308;50.078;14.854;2023-04-25T00:36:56;5.78;;;2.75;;
76475;SDS011;65308;50.078;14.854;2023-04-25T00:39:23;4.95;;;2.92;;
76475;SDS011;65308;50.078;14.854;2023-04-25T00:41:51;4.35;;;2.70;;
76475;SDS011;65308;50.078;14.854;2023-04-25T00:44:19;6.00;;;2.70;;
76475;SDS011;65308;50.078;14.854;2023-04-25T00:46:49;4.25;;;2.67;;
76475;SDS011;65308;50.078;14.854;2023-04-25T00:49:16;4.18;;;2.58;;
76475;SDS011;65308;50.078;14.854;2023-04-25T00:51:43;4.20;;;2.60;;
76475;SDS011;65308;50.078;14.854;2023-04-25T00:54:10;4.70;;;2.83;;
76475;SDS011;65308;50.078;14.854;2023-04-25T00:56:37;6.38;;;2.75;;
76475;SDS011;65308;50.078;14.854;2023-04-25T00:59:06;6.25;;;3.15;;
76475;SDS011;65308;50.078;14.854;2023-04-25T01:01:33;4.75;;;2.72;;
76475;SDS011;65308;50.078;14.854;2023-04-25T01:04:00;5.35;;;3.00;;
76475;SDS011;65308;50.078;14.854;2023-04-25T01:06:27;5.38;;;3.20;;
76475;SDS011;65308;50.078;14.854;2023-04-25T01:08:54;5.95;;;3.15;;
76475;SDS011;65308;50.078;14.854;2023-04-25T01:11:20;4.85;;;2.90;;
76475;SDS011;65308;50.078;14.854;2023-04-25T01:13:47;4.20;;;2.83;;
76475;SDS011;65308;50.078;14.854;2023-04-25T01:16:15;5.88;;;3.15;;
76475;SDS011;65308;50.078;14.854;2023-04-25T01:18:42;5.68;;;3.10;;
76475;SDS011;65308;50.078;14.854;2023-04-25T01:23:38;6.18;;;3.10;;
76475;SDS011;65308;50.078;14.854;2023-04-25T01:26:06;5.15;;;3.10;;
76475;SDS011;65308;50.078;14.854;2023-04-25T01:28:35;4.97;;;2.78;;
76475;SDS011;65308;50.078;14.854;2023-04-25T01:31:01;4.90;;;2.85;;
76475;SDS011;65308;50.078;14.854;2023-04-25T01:33:32;5.78;;;3.00;;
76475;SDS011;65308;50.078;14.854;2023-04-25T01:35:59;5.53;;;2.97;;
76475;SDS011;65308;50.078;14.854;2023-04-25T01:38:28;4.43;;;2.85;;
76475;SDS011;65308;50.078;14.854;2023-04-25T01:40:54;4.80;;;2.80;;
76475;SDS011;65308;50.078;14.854;2023-04-25T01:43:24;5.40;;;2.95;;
76475;SDS011;65308;50.078;14.854;2023-04-25T01:45:51;5.13;;;2.80;;
76475;SDS011;65308;50.078;14.854;2023-04-25T01:48:18;6.28;;;3.05;;
76475;SDS011;65308;50.078;14.854;2023-04-25T01:50:45;7.07;;;3.63;;
76475;SDS011;65308;50.078;14.854;2023-04-25T01:53:12;5.40;;;2.95;;
76475;SDS011;65308;50.078;14.854;2023-04-25T01:55:41;6.72;;;3.20;;
76475;SDS011;65308;50.078;14.854;2023-04-25T01:58:08;5.13;;;3.13;;
76475;SDS011;65308;50.078;14.854;2023-04-25T02:00:37;5.70;;;3.17;;
76475;SDS011;65308;50.078;14.854;2023-04-25T02:03:04;5.40;;;3.20;;
76475;SDS011;65308;50.078;14.854;2023-04-25T02:05:33;4.80;;;3.00;;
76475;SDS011;65308;50.078;14.854;2023-04-25T02:08:01;5.38;;;3.33;;
76475;SDS011;65308;50.078;14.854;2023-04-25T02:10:31;6.40;;;3.22;;
76475;SDS011;65308;50.078;14.854;2023-04-25T02:12:59;7.00;;;3.38;;
76475;SDS011;65308;50.078;14.854;2023-04-25T02:15:27;6.57;;;3.60;;
76475;SDS011;65308;50.078;14.854;2023-04-25T02:17:53;7.03;;;3.72;;
76475;SDS011;65308;50.078;14.854;2023-04-25T02:20:27;6.57;;;3.60;;
76475;SDS011;65308;50.078;14.854;2023-04-25T02:22:55;7.40;;;3.65;;
76475;SDS011;65308;50.078;14.854;2023-04-25T02:25:22;6.07;;;3.72;;
76475;SDS011;65308;50.078;14.854;2023-04-25T02:27:49;6.15;;;3.85;;
76475;SDS011;65308;50.078;14.854;2023-04-25T02:30:17;5.40;;;3.80;;
76475;SDS011;65308;50.078;14.854;2023-04-25T02:32:44;8.07;;;3.85;;
76475;SDS011;65308;50.078;14.854;2023-04-25T02:35:11;5.47;;;3.42;;
76475;SDS011;65308;50.078;14.854;2023-04-25T02:37:38;6.50;;;3.65;;
76475;SDS011;65308;50.078;14.854;2023-04-25T02:40:06;6.45;;;3.92;;
76475;SDS011;65308;50.078;14.854;2023-04-25T02:42:33;6.63;;;3.72;;
76475;SDS011;65308;50.078;14.854;2023-04-25T02:45:00;5.40;;;3.53;;
76475;SDS011;65308;50.078;14.854;2023-04-25T02:47:28;5.82;;;3.63;;
76475;SDS011;65308;50.078;14.854;2023-04-25T02:49:55;7.35;;;3.65;;
76475;SDS011;65308;50.078;14.854;2023-04-25T02:52:22;6.10;;;3.65;;
76475;SDS011;65308;50.078;14.854;2023-04-25T02:54:49;6.57;;;3.95;;
76475;SDS011;65308;50.078;14.854;2023-04-25T02:57:16;6.60;;;4.30;;
76475;SDS011;65308;50.078;14.854;2023-04-25T02:59:43;7.05;;;3.85;;
76475;SDS011;65308;50.078;14.854;2023-04-25T03:02:09;6.90;;;3.60;;
76475;SDS011;65308;50.078;14.854;2023-04-25T03:04:37;6.50;;;3.80;;
76475;SDS011;65308;50.078;14.854;2023-04-25T03:07:04;6.35;;;4.05;;
76475;SDS011;65308;50.078;14.854;2023-04-25T03:09:31;7.57;;;4.03;;
76475;SDS011;65308;50.078;14.854;2023-04-25T03:11:58;7.00;;;4.20;;
76475;SDS011;65308;50.078;14.854;2023-04-25T03:14:25;5.68;;;3.85;;
76475;SDS011;65308;50.078;14.854;2023-04-25T03:16:52;7.15;;;4.15;;
76475;SDS011;65308;50.078;14.854;2023-04-25T03:19:18;6.53;;;3.60;;
76475;SDS011;65308;50.078;14.854;2023-04-25T03:21:47;7.47;;;4.10;;
76475;SDS011;65308;50.078;14.854;2023-04-25T03:24:13;7.28;;;3.97;;
76475;SDS011;65308;50.078;14.854;2023-04-25T03:26:42;6.93;;;4.38;;
76475;SDS011;65308;50.078;14.854;2023-04-25T03:29:09;7.68;;;4.03;;
76475;SDS011;65308;50.078;14.854;2023-04-25T03:31:35;7.20;;;4.40;;
76475;SDS011;65308;50.078;14.854;2023-04-25T03:34:02;6.88;;;4.25;;
76475;SDS011;65308;50.078;14.854;2023-04-25T03:36:29;6.60;;;4.00;;
76475;SDS011;65308;50.078;14.854;2023-04-25T03:38:57;9.57;;;4.38;;
76475;SDS011;65308;50.078;14.854;2023-04-25T03:41:24;6.32;;;3.90;;
76475;SDS011;65308;50.078;14.854;2023-04-25T03:43:50;7.45;;;4.25;;
76475;SDS011;65308;50.078;14.854;2023-04-25T03:46:21;8.52;;;4.45;;
76475;SDS011;65308;50.078;14.854;2023-04-25T03:48:48;7.05;;;4.35;;
76475;SDS011;65308;50.078;14.854;2023-04-25T03:51:14;8.05;;;4.68;;
76475;SDS011;65308;50.078;14.854;2023-04-25T03:53:41;7.15;;;3.95;;
76475;SDS011;65308;50.078;14.854;2023-04-25T03:56:09;6.28;;;4.03;;
76475;SDS011;65308;50.078;14.854;2023-04-25T03:58:36;7.45;;;4.13;;
76475;SDS011;65308;50.078;14.854;2023-04-25T04:01:02;7.40;;;4.43;;
76475;SDS011;65308;50.078;14.854;2023-04-25T04:08:26;8.20;;;4.10;;
76475;SDS011;65308;50.078;14.854;2023-04-25T04:10:53;6.60;;;3.97;;
76475;SDS011;65308;50.078;14.854;2023-04-25T04:13:21;7.78;;;4.15;;
76475;SDS011;65308;50.078;14.854;2023-04-25T04:15:48;7.82;;;4.22;;
76475;SDS011;65308;50.078;14.854;2023-04-25T04:18:16;7.35;;;4.07;;
76475;SDS011;65308;50.078;14.854;2023-04-25T04:20:48;7.18;;;4.28;;
76475;SDS011;65308;50.078;14.854;2023-04-25T04:23:20;7.35;;;4.50;;
76475;SDS011;65308;50.078;14.854;2023-04-25T04:25:53;7.80;;;4.60;;
76475;SDS011;65308;50.078;14.854;2023-04-25T04:36:02;8.75;;;4.25;;
76475;SDS011;65308;50.078;14.854;2023-04-25T04:48:46;6.85;;;4.53;;
76475;SDS011;65308;50.078;14.854;2023-04-25T05:01:50;6.13;;;4.28;;
76475;SDS011;65308;50.078;14.854;2023-04-25T07:41:26;11.20;;;5.88;;
76475;SDS011;65308;50.078;14.854;2023-04-25T07:49:06;7.18;;;5.30;;
76475;SDS011;65308;50.078;14.854;2023-04-25T12:34:27;9.70;;;5.95;;
76475;SDS011;65308;50.078;14.854;2023-04-25T12:36:58;9.43;;;7.00;;
76475;SDS011;65308;50.078;14.854;2023-04-25T12:39:30;9.38;;;6.82;;
76475;SDS011;65308;50.078;14.854;2023-04-25T12:42:03;7.75;;;6.22;;
76475;SDS011;65308;50.078;14.854;2023-04-25T12:44:38;8.27;;;6.90;;
76475;SDS011;65308;50.078;14.854;2023-04-25T12:47:14;7.45;;;5.80;;
76475;SDS011;65308;50.078;14.854;2023-04-25T13:51:49;7.60;;;4.25;;
76475;SDS011;65308;50.078;14.854;2023-04-25T13:54:17;6.18;;;3.85;;
76475;SDS011;65308;50.078;14.854;2023-04-25T13:56:48;4.78;;;3.30;;
76475;SDS011;65308;50.078;14.854;2023-04-25T14:02:14;5.57;;;3.70;;
76475;SDS011;65308;50.078;14.854;2023-04-25T14:04:51;5.60;;;3.20;;
76475;SDS011;65308;50.078;14.854;2023-04-25T16:01:39;7.03;;;4.30;;
76475;SDS011;65308;50.078;14.854;2023-04-25T16:06:41;7.47;;;4.68;;
76475;SDS011;65308;50.078;14.854;2023-04-25T16:12:02;7.00;;;4.50;;
76475;SDS011;65308;50.078;14.854;2023-04-25T16:14:34;6.95;;;4.38;;
76475;SDS011;65308;50.078;14.854;2023-04-25T17:18:26;8.50;;;4.18;;
76475;SDS011;65308;50.078;14.854;2023-04-25T17:20:55;5.60;;;3.63;;
76475;SDS011;65308;50.078;14.854;2023-04-25T17:23:37;6.50;;;3.08;;
76475;SDS011;65308;50.078;14.854;2023-04-25T17:26:09;8.65;;;3.40;;
76475;SDS011;65308;50.078;14.854;2023-04-25T17:28:36;7.00;;;3.20;;
76475;SDS011;65308;50.078;14.854;2023-04-25T17:38:31;5.15;;;2.92;;
76475;SDS011;65308;50.078;14.854;2023-04-25T17:43:35;6.90;;;3.50;;
76475;SDS011;65308;50.078;14.854;2023-04-25T17:46:05;7.07;;;3.58;;
76475;SDS011;65308;50.078;14.854;2023-04-25T17:48:32;7.80;;;3.60;;
76475;SDS011;65308;50.078;14.854;2023-04-25T17:50:59;6.30;;;3.60;;
76475;SDS011;65308;50.078;14.854;2023-04-25T17:53:26;7.38;;;3.83;;
76475;SDS011;65308;50.078;14.854;2023-04-25T17:55:55;10.57;;;4.50;;
76475;SDS011;65308;50.078;14.854;2023-04-25T18:00:57;6.85;;;3.80;;
76475;SDS011;65308;50.078;14.854;2023-04-25T20:03:37;13.35;;;5.72;;
76475;SDS011;65308;50.078;14.854;2023-04-25T20:06:05;9.32;;;4.60;;
76475;SDS011;65308;50.078;14.854;2023-04-25T20:11:04;8.35;;;4.10;;
76475;SDS011;65308;50.078;14.854;2023-04-25T20:16:07;8.52;;;4.65;;
76475;SDS011;65308;50.078;14.854;2023-04-25T20:18:38;9.52;;;4.72;;
76475;SDS011;65308;50.078;14.854;2023-04-25T20:23:37;11.02;;;4.90;;
76475;SDS011;65308;50.078;14.854;2023-04-25T20:26:06;10.65;;;4.85;;
76475;SDS011;65308;50.078;14.854;2023-04-25T20:28:33;8.63;;;5.50;;
76475;SDS011;65308;50.078;14.854;2023-04-25T20:31:04;16.27;;;7.93;;
76475;SDS011;65308;50.078;14.854;2023-04-25T20:33:31;24.48;;;10.85;;
76475;SDS011;65308;50.078;14.854;2023-04-25T20:38:33;31.90;;;14.90;;
76475;SDS011;65308;50.078;14.854;2023-04-25T20:41:00;33.38;;;14.68;;
76475;SDS011;65308;50.078;14.854;2023-04-25T20:43:26;28.08;;;12.68;;
76475;SDS011;65308;50.078;14.854;2023-04-25T20:45:57;17.38;;;8.07;;
76475;SDS011;65308;50.078;14.854;2023-04-25T20:51:00;11.35;;;5.00;;
76475;SDS011;65308;50.078;14.854;2023-04-25T20:53:28;14.77;;;5.53;;
76475;SDS011;65308;50.078;14.854;2023-04-25T20:55:56;12.82;;;5.40;;
76475;SDS011;65308;50.078;14.854;2023-04-25T20:58:23;9.88;;;4.72;;
76475;SDS011;65308;50.078;14.854;2023-04-25T21:00:53;9.52;;;4.63;;
76475;SDS011;65308;50.078;14.854;2023-04-25T21:03:24;9.98;;;4.55;;
76475;SDS011;65308;50.078;14.854;2023-04-25T21:06:00;9.68;;;4.38;;
76475;SDS011;65308;50.078;14.854;2023-04-25T21:21:21;8.15;;;4.00;;
76475;SDS011;65308;50.078;14.854;2023-04-25T21:23:48;11.88;;;5.13;;
76475;SDS011;65308;50.078;14.854;2023-04-25T21:28:46;12.88;;;4.80;;
76475;SDS011;65308;50.078;14.854;2023-04-25T21:31:17;9.98;;;5.07;;
76475;SDS011;65308;50.078;14.854;2023-04-25T21:36:12;11.80;;;4.53;;
76475;SDS011;65308;50.078;14.854;2023-04-25T21:41:17;9.20;;;4.72;;
76475;SDS011;65308;50.078;14.854;2023-04-25T21:43:49;9.00;;;4.10;;
76475;SDS011;65308;50.078;14.854;2023-04-25T21:46:18;8.93;;;4.35;;
76475;SDS011;65308;50.078;14.854;2023-04-25T21:54:19;9.15;;;4.55;;
76475;SDS011;65308;50.078;14.854;2023-04-25T22:09:20;9.85;;;4.63;;
76475;SDS011;65308;50.078;14.854;2023-04-25T22:11:51;8.93;;;4.25;;
76475;SDS011;65308;50.078;14.854;2023-04-25T22:14:18;9.23;;;4.38;;
76475;SDS011;65308;50.078;14.854;2023-04-25T22:16:46;8.63;;;3.92;;
76475;SDS011;65308;50.078;14.854;2023-04-25T22:19:16;9.27;;;4.50;;
76475;SDS011;65308;50.078;14.854;2023-04-25T22:21:44;7.93;;;4.82;;
76475;SDS011;65308;50.078;14.854;2023-04-25T22:24:11;8.32;;;4.25;;
76475;SDS011;65308;50.078;14.854;2023-04-25T22:26:50;11.77;;;4.32;;
76475;SDS011;65308;50.078;14.854;2023-04-25T22:29:17;10.95;;;4.47;;
76475;SDS011;65308;50.078;14.854;2023-04-25T22:31:44;8.70;;;4.40;;
76475;SDS011;65308;50.078;14.854;2023-04-25T22:34:23;10.68;;;4.90;;
76475;SDS011;65308;50.078;14.854;2023-04-25T22:37:06;9.50;;;4.28;;
76475;SDS011;65308;50.078;14.854;2023-04-25T22:39:39;10.45;;;4.72;;
76475;SDS011;65308;50.078;14.854;2023-04-25T22:47:11;10.80;;;5.35;;
76475;SDS011;65308;50.078;14.854;2023-04-25T22:49:38;9.30;;;4.10;;
76475;SDS011;65308;50.078;14.854;2023-04-25T22:52:07;9.90;;;4.28;;
76475;SDS011;65308;50.078;14.854;2023-04-25T22:54:35;7.35;;;4.32;;
76475;SDS011;65308;50.078;14.854;2023-04-25T22:57:05;10.02;;;4.55;;
76475;SDS011;65308;50.078;14.854;2023-04-25T22:59:32;8.30;;;4.25;;
76475;SDS011;65308;50.078;14.854;2023-04-25T23:02:02;7.55;;;4.13;;
76475;SDS011;65308;50.078;14.854;2023-04-25T23:04:33;12.57;;;4.32;;
76475;SDS011;65308;50.078;14.854;2023-04-25T23:07:02;11.30;;;4.40;;
76475;SDS011;65308;50.078;14.854;2023-04-25T23:09:30;8.15;;;4.55;;
76475;SDS011;65308;50.078;14.854;2023-04-25T23:11:58;8.45;;;4.05;;
76475;SDS011;65308;50.078;14.854;2023-04-25T23:16:53;9.70;;;4.13;;
76475;SDS011;65308;50.078;14.854;2023-04-25T23:19:22;9.07;;;4.20;;
76475;SDS011;65308;50.078;14.854;2023-04-25T23:21:52;9.80;;;4.07;;
76475;SDS011;65308;50.078;14.854;2023-04-25T23:24:19;12.00;;;4.55;;
76475;SDS011;65308;50.078;14.854;2023-04-25T23:26:51;9.30;;;4.70;;
76475;SDS011;65308;50.078;14.854;2023-04-25T23:29:18;9.32;;;4.13;;
76475;SDS011;65308;50.078;14.854;2023-04-25T23:31:45;10.88;;;4.00;;
76475;SDS011;65308;50.078;14.854;2023-04-25T23:34:12;9.63;;;4.18;;
76475;SDS011;65308;50.078;14.854;2023-04-25T23:36:38;8.27;;;4.65;;
76475;SDS011;65308;50.078;14.854;2023-04-25T23:41:37;8.23;;;4.30;;
76475;SDS011;65308;50.078;14.854;2023-04-25T23:44:04;9.93;;;4.45;;
76475;SDS011;65308;50.078;14.854;2023-04-25T23:46:33;9.43;;;4.10;;
76475;SDS011;65308;50.078;14.854;2023-04-25T23:49:00;8.52;;;4.50;;
76475;SDS011;65308;50.078;14.854;2023-04-25T23:51:28;9.88;;;4.40;;
76475;SDS011;65308;50.078;14.854;2023-04-25T23:53:56;9.43;;;4.55;;
76475;SDS011;65308;50.078;14.854;2023-04-25T23:56:22;9.90;;;4.55;;
76475;SDS011;65308;50.078;14.854;2023-04-25T23:58:52;9.43;;;4.15;;
